This is the latest recevied weather packets stored in our database for station/object OK2PYA-5. If no packets are shown the sender has not sent any weather packets the latest 10 day(s).
| Time | Temp. | Humidity | Pressure | Rain* | Wind** | Luminosity | Snow |
|---|---|---|---|---|---|---|---|
| 1777735987 | 17.22° C | 49% | 1020 hPa | - | - | - | - |
| 1777734060 | 16.67° C | 51% | 1020.2 hPa | - | - | - | - |
| 1777732133 | 17.22° C | 51% | 1020.4 hPa | - | - | - | - |
| 1777730207 | 17.22° C | 51% | 1020.6 hPa | - | - | - | - |
| 1777728280 | 16.67° C | 54% | 1021 hPa | - | - | - | - |
| 1777726353 | 16.67° C | 53% | 1021.4 hPa | - | - | - | - |
| 1777724427 | 16.67° C | 57% | 1021.7 hPa | - | - | - | - |
| 1777716312 | 15° C | 67% | 1023 hPa | - | - | - | - |
| 1777714386 | 14.44° C | 72% | 1023.3 hPa | - | - | - | - |
| 1777712459 | 13.89° C | 73% | 1023.5 hPa | - | - | - | - |
| 1777710532 | 13.33° C | 75% | 1023.8 hPa | - | - | - | - |
| 1777708606 | 11.67° C | 83% | 1023.9 hPa | - | - | - | - |
| 1777706679 | 10° C | 91% | 1024 hPa | - | - | - | - |
| 1777704752 | 8.33° C | 96% | 1024.2 hPa | - | - | - | - |
| 1777702825 | 5.56° C | 96% | 1024.1 hPa | - | - | - | - |
| 1777700899 | 3.89° C | 100% | 1024.3 hPa | - | - | - | - |
| 1777698972 | 2.78° C | 100% | 1024.2 hPa | - | - | - | - |
| 1777697045 | 2.22° C | 100% | 1024.1 hPa | - | - | - | - |
| 1777694711 | 2.78° C | 100% | 1024 hPa | - | - | - | - |
| 1777692785 | 3.89° C | 97% | 1023.9 hPa | - | - | - | - |
| 1777690858 | 3.33° C | 100% | 1024 hPa | - | - | - | - |
| 1777688931 | 3.33° C | 100% | 1024.2 hPa | - | - | - | - |
| 1777687004 | 3.89° C | 97% | 1024.2 hPa | - | - | - | - |
| 1777685078 | 4.44° C | 94% | 1024.4 hPa | - | - | - | - |
| 1777683151 | 5° C | 95% | 1024.5 hPa | - | - | - | - |
* Rain since midnight (hover to see other rain measurements)
** Current wind speed in m/s (hover to see current wind gust speed)